Time;durP1;ratioP1;P1;durP2;ratioP2;P2;SDS_P1;SDS_P2;PMS_P1;PMS_P2;Temp;Humidity;BMP_temperature;BMP_pressure;BME280_temperature;BME280_humidity;BME280_pressure;Samples;Min_cycle;Max_cycle;Signal;HPM_P1;HPM_P2
2022/07/14 00:02:54;;;;;;;3.57;1.67;;;23.00;1.00;;;;;;8305760;28;20197;-65
2022/07/14 00:06:55;;;;;;;3.43;1.53;;;22.90;1.00;;;;;;8317624;28;20213;-61
2022/07/14 00:10:56;;;;;;;2.13;1.50;;;22.90;1.00;;;;;;8312326;28;20596;-61
2022/07/14 00:14:56;;;;;;;3.00;1.67;;;22.90;1.00;;;;;;8338333;28;20214;-62
2022/07/14 00:18:57;;;;;;;3.20;1.63;;;22.80;1.00;;;;;;8306166;28;20189;-62
2022/07/14 00:22:58;;;;;;;3.33;1.60;;;22.70;1.00;;;;;;8305696;28;20177;-61
2022/07/14 00:26:59;;;;;;;6.47;1.53;;;22.60;1.00;;;;;;8339187;28;20197;-61
2022/07/14 00:31:03;;;;;;;3.63;1.80;;;22.40;1.00;;;;;;8311797;28;20261;-61
2022/07/14 00:35:05;;;;;;;2.60;1.73;;;22.30;1.00;;;;;;8337548;28;20258;-61
2022/07/14 00:39:06;;;;;;;2.47;2.20;;;22.10;1.00;;;;;;8344850;28;20198;-61
2022/07/14 00:43:06;;;;;;;3.63;1.83;;;22.00;1.00;;;;;;8303309;28;20183;-61
2022/07/14 00:47:07;;;;;;;1.60;1.50;;;21.90;1.00;;;;;;8342251;28;20636;-61
2022/07/14 00:51:08;;;;;;;3.67;1.83;;;21.70;1.00;;;;;;8336440;28;20206;-64
2022/07/14 00:55:10;;;;;;;3.27;1.80;;;21.50;1.00;;;;;;8338139;28;20246;-61
2022/07/14 00:59:11;;;;;;;4.60;1.87;;;21.40;1.00;;;;;;8310136;28;20194;-62
2022/07/14 01:03:11;;;;;;;2.53;1.40;;;21.20;1.00;;;;;;8305227;28;20262;-62
2022/07/14 01:07:13;;;;;;;2.77;2.00;;;21.10;1.00;;;;;;8336968;28;20229;-63
2022/07/14 01:11:14;;;;;;;2.13;1.93;;;20.90;1.00;;;;;;8310156;28;20191;-62
2022/07/14 01:15:15;;;;;;;4.93;2.10;;;20.70;1.00;;;;;;8301604;28;20245;-64
2022/07/14 01:19:16;;;;;;;2.60;1.80;;;20.60;1.00;;;;;;8339297;28;20194;-62
2022/07/14 01:23:17;;;;;;;1.87;1.53;;;20.50;1.00;;;;;;8307053;28;20182;-62
2022/07/14 01:27:21;;;;;;;1.87;1.67;;;20.40;1.00;;;;;;8312196;28;20190;-62
2022/07/14 01:31:21;;;;;;;2.43;1.80;;;20.40;1.00;;;;;;8332162;28;20187;-62
2022/07/14 01:35:22;;;;;;;2.03;1.70;;;20.40;1.00;;;;;;8300354;28;20221;-63
2022/07/14 01:39:23;;;;;;;2.40;1.77;;;20.50;1.00;;;;;;8304631;28;20206;-62
2022/07/14 01:43:24;;;;;;;2.50;1.70;;;20.50;3.90;;;;;;8304629;28;20182;-62
2022/07/14 01:47:25;;;;;;;3.87;2.00;;;20.50;35.40;;;;;;8303782;28;20186;-62
2022/07/14 01:51:25;;;;;;;4.37;2.10;;;20.40;22.80;;;;;;8330507;28;20238;-61
2022/07/14 01:55:26;;;;;;;3.47;2.13;;;20.40;32.70;;;;;;8309740;28;20262;-62
2022/07/14 01:59:27;;;;;;;8.50;2.20;;;20.40;51.90;;;;;;8308720;28;20191;-64
2022/07/14 02:03:28;;;;;;;2.53;2.13;;;20.40;38.70;;;;;;8316468;28;20194;-65
2022/07/14 02:07:29;;;;;;;4.97;2.17;;;20.40;49.70;;;;;;8345373;28;20220;-61
2022/07/14 02:15:49;;;;;;;3.70;2.03;;;20.40;62.10;;;;;;8302012;28;20264;-61
2022/07/14 02:19:50;;;;;;;4.33;2.50;;;20.40;75.20;;;;;;8312114;28;20191;-61
2022/07/14 02:23:51;;;;;;;3.60;2.13;;;20.40;93.40;;;;;;8314385;28;20301;-62
2022/07/14 02:27:52;;;;;;;3.10;2.40;;;20.40;95.50;;;;;;8329831;28;20191;-61
2022/07/14 02:31:53;;;;;;;3.27;2.10;;;20.40;98.90;;;;;;8308483;28;20194;-62
2022/07/14 02:35:53;;;;;;;3.73;2.37;;;20.30;99.90;;;;;;8308463;28;20381;-61
2022/07/14 02:39:54;;;;;;;4.63;2.37;;;20.30;99.90;;;;;;8306537;28;20214;-62
2022/07/14 02:43:55;;;;;;;2.83;1.90;;;20.20;97.30;;;;;;8309117;28;20241;-62
2022/07/14 02:47:56;;;;;;;4.27;2.47;;;20.30;99.90;;;;;;8311730;28;20194;-61
2022/07/14 02:51:56;;;;;;;5.50;2.43;;;20.20;99.90;;;;;;8338962;28;20245;-62
2022/07/14 02:55:57;;;;;;;3.37;2.10;;;20.20;99.90;;;;;;8301064;28;20297;-62
2022/07/14 02:59:58;;;;;;;3.00;2.20;;;20.10;99.90;;;;;;8312458;28;20293;-61
2022/07/14 03:03:59;;;;;;;2.80;1.87;;;20.10;99.90;;;;;;8308986;28;20325;-62
2022/07/14 03:08:00;;;;;;;7.27;4.37;;;20.10;99.90;;;;;;8341570;28;20201;-72
2022/07/14 03:12:01;;;;;;;6.70;4.93;;;20.00;99.90;;;;;;8311577;28;20182;-60
2022/07/14 03:16:02;;;;;;;7.70;5.13;;;20.10;99.90;;;;;;8311191;28;20296;-62
2022/07/14 03:20:03;;;;;;;5.57;4.10;;;20.00;99.90;;;;;;8343751;28;20967;-62
2022/07/14 03:24:04;;;;;;;4.77;3.73;;;20.00;99.90;;;;;;8309144;28;20196;-61
2022/07/14 03:28:06;;;;;;;3.50;3.20;;;19.90;99.90;;;;;;8311181;28;20190;-68
2022/07/14 03:32:07;;;;;;;7.37;2.80;;;19.90;99.90;;;;;;8311700;28;20494;-61
2022/07/14 03:36:08;;;;;;;5.10;3.10;;;19.90;99.90;;;;;;8310154;28;20215;-62
2022/07/14 03:40:09;;;;;;;3.70;2.20;;;19.90;99.90;;;;;;8311852;28;20194;-61
2022/07/14 03:44:10;;;;;;;2.97;2.70;;;19.90;99.90;;;;;;8309467;28;20183;-61
2022/07/14 03:48:11;;;;;;;5.07;2.40;;;19.90;99.90;;;;;;8307156;28;20194;-61
2022/07/14 03:52:12;;;;;;;5.00;2.50;;;20.00;99.90;;;;;;8305167;28;20217;-61
2022/07/14 03:56:12;;;;;;;2.80;2.60;;;20.00;99.90;;;;;;8337385;28;20261;-61
2022/07/14 04:00:14;;;;;;;3.30;2.87;;;20.00;99.90;;;;;;8315572;28;20258;-66
2022/07/14 04:04:14;;;;;;;2.83;2.40;;;20.00;99.90;;;;;;8339716;28;20191;-62
2022/07/14 04:08:16;;;;;;;2.57;2.37;;;20.00;99.90;;;;;;8343360;28;20285;-61
2022/07/14 04:12:16;;;;;;;3.73;2.40;;;20.10;99.90;;;;;;8341405;28;20285;-61
2022/07/14 04:16:17;;;;;;;4.87;2.57;;;20.60;99.90;;;;;;8308745;28;20261;-61
2022/07/14 04:20:18;;;;;;;4.03;2.30;;;21.00;99.90;;;;;;8338691;28;20201;-61
2022/07/14 04:24:19;;;;;;;2.73;2.50;;;21.20;99.90;;;;;;8303435;28;20277;-62
2022/07/14 04:28:19;;;;;;;5.90;2.53;;;21.90;69.60;;;;;;8305380;28;20226;-62
2022/07/14 04:32:20;;;;;;;2.73;2.50;;;22.30;20.40;;;;;;8307230;28;20309;-61
2022/07/14 04:36:22;;;;;;;3.90;2.37;;;22.60;3.20;;;;;;8308277;28;20250;-61
2022/07/14 04:40:23;;;;;;;4.07;2.60;;;22.50;6.90;;;;;;8308238;28;20183;-61
2022/07/14 04:44:24;;;;;;;2.40;2.20;;;22.40;24.30;;;;;;8304751;28;20185;-63
2022/07/14 04:48:25;;;;;;;3.30;2.23;;;22.40;18.50;;;;;;8334657;28;20237;-69
2022/07/14 04:52:25;;;;;;;2.63;2.03;;;22.20;26.60;;;;;;8308183;28;20202;-62
2022/07/14 04:56:26;;;;;;;3.07;2.77;;;22.30;23.10;;;;;;8335813;28;20291;-61
2022/07/14 05:00:27;;;;;;;3.87;2.50;;;22.70;18.80;;;;;;8306338;28;20273;-62
2022/07/14 05:04:28;;;;;;;3.37;2.80;;;22.80;7.40;;;;;;8303404;28;20286;-62
2022/07/14 05:08:29;;;;;;;3.90;2.50;;;22.80;6.30;;;;;;8302106;28;20230;-62
2022/07/14 05:12:29;;;;;;;3.53;2.60;;;22.80;3.60;;;;;;8316117;28;20637;-70
2022/07/14 05:16:30;;;;;;;3.30;2.50;;;22.90;1.90;;;;;;8311198;28;20215;-63
2022/07/14 05:20:31;;;;;;;3.00;2.70;;;22.70;22.10;;;;;;8333812;28;20204;-62
2022/07/14 05:24:32;;;;;;;4.80;2.60;;;22.50;18.70;;;;;;8307343;28;20182;-61
2022/07/14 05:28:32;;;;;;;3.80;2.20;;;22.40;31.60;;;;;;8339977;28;20182;-61
2022/07/14 05:32:35;;;;;;;5.40;3.03;;;22.50;24.40;;;;;;8329065;28;20179;-62
2022/07/14 05:36:36;;;;;;;3.57;2.67;;;22.50;26.10;;;;;;8308168;28;20210;-61
2022/07/14 05:40:36;;;;;;;3.30;3.00;;;22.70;27.90;;;;;;8311898;28;20244;-61
2022/07/14 05:44:37;;;;;;;4.13;2.70;;;22.70;21.90;;;;;;8306058;28;20182;-62
2022/07/14 05:48:38;;;;;;;3.60;2.60;;;22.60;43.80;;;;;;8334696;28;20292;-62
2022/07/14 05:52:42;;;;;;;5.27;2.70;;;22.50;36.20;;;;;;8339383;28;20290;-62
2022/07/14 05:56:43;;;;;;;4.17;2.97;;;22.60;31.00;;;;;;8309866;28;20238;-62
2022/07/14 06:00:43;;;;;;;3.53;2.83;;;22.70;23.50;;;;;;8309655;28;20182;-61
2022/07/14 06:04:45;;;;;;;4.97;3.10;;;22.50;31.60;;;;;;8304094;28;20183;-62
2022/07/14 06:08:45;;;;;;;3.23;2.70;;;22.50;45.20;;;;;;8331534;28;20198;-63
2022/07/14 06:12:46;;;;;;;4.37;2.83;;;22.50;34.50;;;;;;8310066;28;20233;-62
2022/07/14 06:16:47;;;;;;;4.23;2.63;;;22.70;44.50;;;;;;8332273;28;20210;-67
2022/07/14 06:20:48;;;;;;;3.17;2.87;;;23.00;23.50;;;;;;8304780;28;20265;-61
2022/07/14 06:24:49;;;;;;;4.83;2.83;;;23.40;2.90;;;;;;8302284;28;20266;-63
2022/07/14 06:28:49;;;;;;;6.03;2.90;;;23.80;1.00;;;;;;8335565;28;20355;-63
2022/07/14 06:32:50;;;;;;;3.37;2.37;;;24.40;1.00;;;;;;8335498;28;20234;-66
2022/07/14 06:36:51;;;;;;;3.20;2.90;;;24.80;1.00;;;;;;8309176;28;20214;-63
2022/07/14 06:40:52;;;;;;;3.50;2.70;;;24.60;1.00;;;;;;8331539;28;20182;-61
2022/07/14 06:44:53;;;;;;;4.97;2.70;;;24.40;1.00;;;;;;8312781;28;20191;-63
2022/07/14 06:48:54;;;;;;;3.13;2.70;;;24.30;1.00;;;;;;8312662;28;20278;-61
2022/07/14 06:52:55;;;;;;;4.07;2.83;;;24.00;1.00;;;;;;8311515;28;20238;-63
2022/07/14 06:56:56;;;;;;;4.57;2.77;;;23.60;1.00;;;;;;8344665;28;20213;-63
2022/07/14 07:00:57;;;;;;;4.47;2.67;;;23.50;8.90;;;;;;8310185;28;20215;-61
2022/07/14 07:09:19;;;;;;;3.60;2.50;;;23.30;2.70;;;;;;8312231;28;20205;-65
2022/07/14 07:13:20;;;;;;;2.83;2.60;;;23.40;2.40;;;;;;8309211;28;20249;-63
2022/07/14 07:17:20;;;;;;;4.30;2.70;;;23.40;12.80;;;;;;8310922;28;20214;-66
2022/07/14 07:21:21;;;;;;;2.60;2.40;;;23.50;5.10;;;;;;8305061;28;20258;-63
2022/07/14 07:25:23;;;;;;;2.83;2.23;;;23.80;1.00;;;;;;8311507;28;20213;-63
2022/07/14 07:29:24;;;;;;;3.90;2.60;;;23.90;1.00;;;;;;8315475;28;20193;-62
2022/07/14 07:33:24;;;;;;;2.70;2.43;;;24.00;1.00;;;;;;8311331;28;20194;-65
2022/07/14 07:37:25;;;;;;;4.90;2.13;;;23.80;1.00;;;;;;8341671;28;20214;-64
2022/07/14 07:41:26;;;;;;;2.80;2.60;;;23.70;1.00;;;;;;8306909;28;20201;-64
2022/07/14 07:45:27;;;;;;;3.57;2.80;;;23.60;2.90;;;;;;8338488;28;20194;-65
2022/07/14 07:49:28;;;;;;;3.00;2.20;;;23.60;2.10;;;;;;8311524;28;20604;-61
2022/07/14 07:53:29;;;;;;;4.27;2.63;;;23.60;4.90;;;;;;8316417;28;20252;-65
2022/07/14 07:57:29;;;;;;;4.80;2.67;;;23.70;13.00;;;;;;8336522;28;20309;-64
2022/07/14 08:01:30;;;;;;;3.90;2.70;;;23.60;1.00;;;;;;8309868;28;20197;-62
2022/07/14 08:05:32;;;;;;;3.03;2.10;;;23.40;20.00;;;;;;8339476;28;20237;-61
2022/07/14 08:09:33;;;;;;;6.40;2.27;;;23.30;11.50;;;;;;8301123;28;20193;-61
2022/07/14 08:13:34;;;;;;;4.73;2.77;;;23.70;13.00;;;;;;8309269;28;20201;-63
2022/07/14 08:17:35;;;;;;;5.17;2.10;;;23.70;9.50;;;;;;8331986;28;20211;-63
2022/07/14 08:21:36;;;;;;;5.20;2.63;;;23.70;1.00;;;;;;8336630;28;20225;-63
2022/07/14 08:25:37;;;;;;;7.93;2.40;;;24.00;1.00;;;;;;8304717;28;20186;-63
2022/07/14 08:29:37;;;;;;;2.77;2.17;;;24.30;1.00;;;;;;8306613;28;20186;-66
2022/07/14 08:33:38;;;;;;;4.03;2.40;;;24.60;1.00;;;;;;8304687;28;20218;-65
2022/07/14 08:37:39;;;;;;;3.73;2.63;;;24.50;1.00;;;;;;8305617;28;20198;-64
2022/07/14 08:41:41;;;;;;;3.50;2.70;;;24.50;1.00;;;;;;8335492;28;20286;-63
2022/07/14 08:45:42;;;;;;;3.57;2.40;;;24.60;1.00;;;;;;8307067;28;20182;-64
2022/07/14 08:49:44;;;;;;;3.53;2.43;;;24.90;1.00;;;;;;8304511;28;20213;-65
2022/07/14 08:53:45;;;;;;;4.37;2.40;;;25.20;1.00;;;;;;8301305;28;20207;-65
2022/07/14 08:57:46;;;;;;;5.63;2.33;;;24.90;1.00;;;;;;8339022;28;20229;-65
2022/07/14 09:01:50;;;;;;;3.27;2.30;;;24.80;1.00;;;;;;8306882;28;20254;-66
2022/07/14 09:05:51;;;;;;;3.67;2.30;;;24.20;1.00;;;;;;8316078;28;20210;-63
2022/07/14 09:10:01;;;;;;;2.97;2.13;;;24.00;1.00;;;;;;8334755;28;20269;-65
2022/07/14 09:14:09;;;;;;;2.47;2.07;;;24.20;1.00;;;;;;8297524;28;20179;-63
2022/07/14 09:18:17;;;;;;;4.53;2.47;;;24.50;1.00;;;;;;8299737;28;20223;-63
2022/07/14 09:22:27;;;;;;;3.77;2.70;;;24.30;1.00;;;;;;8316551;28;20187;-65
2022/07/14 09:26:29;;;;;;;5.10;2.20;;;24.10;1.00;;;;;;8305518;28;20294;-64
2022/07/14 09:30:31;;;;;;;3.30;2.40;;;23.90;1.00;;;;;;8305593;28;20259;-65
2022/07/14 09:34:33;;;;;;;2.30;2.03;;;23.80;1.00;;;;;;8335851;28;20217;-62
2022/07/14 09:38:44;;;;;;;3.40;2.20;;;23.90;1.00;;;;;;8309858;28;20220;-64
2022/07/14 09:43:05;;;;;;;4.50;2.13;;;23.90;1.00;;;;;;8304028;28;20186;-64
2022/07/14 09:47:06;;;;;;;3.37;2.20;;;24.00;1.00;;;;;;8304252;28;20541;-64
2022/07/14 09:51:08;;;;;;;2.97;1.90;;;24.30;1.00;;;;;;8303500;28;20202;-65
2022/07/14 09:55:22;;;;;;;2.63;1.90;;;24.50;1.00;;;;;;8336434;28;20213;-62
2022/07/14 09:59:22;;;;;;;2.67;1.77;;;24.30;1.00;;;;;;8305515;28;20765;-65
2022/07/14 10:03:28;;;;;;;2.57;1.93;;;24.20;1.00;;;;;;8330118;28;20805;-64
2022/07/14 10:07:34;;;;;;;4.30;1.67;;;24.50;1.00;;;;;;8305302;28;20206;-64
2022/07/14 10:11:35;;;;;;;2.67;1.77;;;24.30;1.00;;;;;;8306590;28;20186;-65
2022/07/14 10:15:36;;;;;;;2.93;1.80;;;24.40;1.00;;;;;;8305660;28;20555;-64
2022/07/14 10:19:38;;;;;;;2.63;1.50;;;24.90;1.00;;;;;;8306465;28;20622;-64
2022/07/14 10:23:40;;;;;;;3.40;1.70;;;24.80;1.00;;;;;;8307751;28;20274;-64
2022/07/14 10:27:42;;;;;;;2.43;1.43;;;24.90;1.00;;;;;;8337723;28;20218;-65
2022/07/14 10:31:58;;;;;;;1.70;1.60;;;25.20;1.00;;;;;;8346546;28;20195;-63
2022/07/14 10:36:37;;;;;;;2.20;1.57;;;25.10;1.00;;;;;;8310210;28;20211;-63
2022/07/14 10:40:56;;;;;;;3.43;1.80;;;24.90;1.00;;;;;;8310219;28;20195;-70
2022/07/14 10:45:01;;;;;;;1.93;1.70;;;24.60;1.00;;;;;;8344617;28;20274;-65
2022/07/14 10:49:04;;;;;;;3.80;1.87;;;25.00;1.00;;;;;;8307240;28;20190;-63
2022/07/14 10:53:05;;;;;;;4.97;2.00;;;25.40;1.00;;;;;;8306013;28;20294;-65
2022/07/14 10:57:14;;;;;;;10.17;2.20;;;26.20;1.00;;;;;;8301810;28;20257;-66
2022/07/14 11:01:15;;;;;;;5.80;2.20;;;26.00;1.00;;;;;;8309643;28;20180;-64
2022/07/14 11:05:17;;;;;;;4.00;2.37;;;24.90;1.00;;;;;;8312084;28;20656;-65
2022/07/14 11:09:18;;;;;;;2.93;2.63;;;24.50;1.00;;;;;;8312339;28;20190;-65
2022/07/14 11:13:19;;;;;;;2.73;2.20;;;24.30;1.00;;;;;;8304015;28;20229;-64
2022/07/14 11:17:37;;;;;;;3.60;2.27;;;24.20;1.00;;;;;;8307259;28;20226;-67
2022/07/14 11:22:18;;;;;;;4.97;2.07;;;24.60;1.00;;;;;;8310102;28;20365;-65
2022/07/14 11:26:40;;;;;;;2.97;2.00;;;25.20;1.00;;;;;;8303432;28;21921;-66
2022/07/14 11:30:42;;;;;;;2.10;1.90;;;25.50;1.00;;;;;;8334426;28;20186;-65
2022/07/14 11:39:18;;;;;;;2.83;2.17;;;25.40;1.00;;;;;;8309980;28;20252;-65
2022/07/14 11:43:30;;;;;;;3.33;1.97;;;25.30;1.00;;;;;;8337830;28;20182;-65
2022/07/14 11:47:33;;;;;;;2.70;2.50;;;25.80;1.00;;;;;;8339867;28;20194;-65
2022/07/14 11:51:34;;;;;;;3.87;2.00;;;25.80;1.00;;;;;;8314243;28;20202;-66
2022/07/14 11:55:37;;;;;;;4.23;2.50;;;25.40;1.00;;;;;;8311147;28;20306;-66
2022/07/14 11:59:42;;;;;;;2.37;2.17;;;25.80;1.00;;;;;;8315459;28;20189;-67
2022/07/14 12:03:43;;;;;;;4.27;2.70;;;26.10;1.00;;;;;;8298468;28;20195;-65
2022/07/14 12:07:49;;;;;;;3.90;2.40;;;25.80;1.00;;;;;;8312937;28;20214;-65
2022/07/14 12:11:51;;;;;;;2.75;2.55;;;26.40;1.00;;;;;;8344105;28;20269;-65
2022/07/14 12:15:59;;;;;;;5.07;2.63;;;26.70;1.00;;;;;;8309903;28;20268;-67
2022/07/14 12:20:00;;;;;;;2.47;2.20;;;27.30;1.00;;;;;;8310149;28;20178;-67
2022/07/14 12:24:02;;;;;;;4.53;2.33;;;27.90;1.00;;;;;;8306292;28;20182;-67
2022/07/14 12:28:05;;;;;;;4.15;2.00;;;27.80;1.00;;;;;;8303261;28;20183;-67
2022/07/14 12:32:07;;;;;;;2.22;1.90;;;27.30;1.00;;;;;;8306810;28;20501;-67
2022/07/14 12:36:14;;;;;;;2.97;1.70;;;27.60;1.00;;;;;;8303691;28;20301;-67
2022/07/14 12:40:17;;;;;;;2.47;1.63;;;27.20;1.00;;;;;;8297530;28;20183;-67
2022/07/14 12:44:18;;;;;;;4.78;2.00;;;27.30;1.00;;;;;;8305906;28;20187;-68
2022/07/14 12:48:19;;;;;;;2.58;1.90;;;26.50;1.00;;;;;;8300903;28;20222;-65
2022/07/14 12:52:20;;;;;;;2.10;1.90;;;25.70;1.00;;;;;;8306842;28;20217;-67
2022/07/14 12:56:22;;;;;;;2.13;1.73;;;25.80;1.00;;;;;;8296660;28;20214;-65
2022/07/14 13:00:30;;;;;;;4.27;1.80;;;25.80;1.00;;;;;;8304219;28;20209;-65
2022/07/14 13:04:43;;;;;;;3.07;1.63;;;26.00;1.00;;;;;;8304765;28;20197;-65
2022/07/14 13:08:44;;;;;;;2.47;1.90;;;26.00;1.00;;;;;;8305143;28;20203;-66
2022/07/14 13:12:51;;;;;;;2.83;1.80;;;25.50;1.00;;;;;;8303888;28;20187;-66
2022/07/14 13:16:52;;;;;;;3.23;2.03;;;26.10;1.00;;;;;;8332705;28;20227;-65
2022/07/14 13:20:53;;;;;;;2.63;1.90;;;26.70;1.00;;;;;;8333258;28;20195;-65
2022/07/14 13:24:55;;;;;;;3.47;1.80;;;27.30;1.00;;;;;;8303952;28;20411;-65
2022/07/14 13:28:56;;;;;;;4.13;1.80;;;27.70;1.00;;;;;;8298602;28;20187;-67
2022/07/14 13:32:57;;;;;;;2.40;1.80;;;27.00;1.00;;;;;;8303639;28;20185;-69
2022/07/14 13:36:59;;;;;;;3.65;1.77;;;26.80;1.00;;;;;;8301569;28;20228;-66
2022/07/14 13:40:59;;;;;;;3.58;2.03;;;26.80;1.00;;;;;;8333229;28;20186;-66
2022/07/14 13:45:01;;;;;;;4.25;1.80;;;26.60;1.00;;;;;;8328367;28;20224;-68
2022/07/14 13:49:02;;;;;;;2.20;1.70;;;26.50;1.00;;;;;;8303686;28;20194;-66
2022/07/14 13:53:03;;;;;;;4.82;1.60;;;26.50;1.00;;;;;;8335529;28;20194;-65
2022/07/14 13:57:05;;;;;;;1.90;1.70;;;26.60;1.00;;;;;;8307650;28;20206;-66
2022/07/14 14:01:06;;;;;;;2.95;1.90;;;26.90;1.00;;;;;;8320843;28;20178;-65
2022/07/14 14:05:07;;;;;;;2.20;1.60;;;26.70;1.00;;;;;;8310163;28;20213;-65
2022/07/14 14:09:09;;;;;;;2.17;1.77;;;26.60;1.00;;;;;;8304137;28;20183;-65
2022/07/14 14:13:10;;;;;;;3.05;2.13;;;25.90;1.00;;;;;;8342256;28;20186;-65
2022/07/14 14:17:12;;;;;;;2.50;1.90;;;25.70;1.00;;;;;;8317062;28;20220;-64
2022/07/14 14:21:12;;;;;;;2.37;2.00;;;25.70;1.00;;;;;;8309884;28;20178;-66
2022/07/14 14:25:13;;;;;;;3.47;2.00;;;25.70;1.00;;;;;;8309831;28;20214;-64
2022/07/14 14:29:14;;;;;;;3.63;1.80;;;25.90;1.00;;;;;;8314250;28;20190;-65
2022/07/14 14:33:15;;;;;;;4.57;2.27;;;25.90;1.00;;;;;;8304752;28;20202;-66
2022/07/14 14:37:16;;;;;;;3.80;1.80;;;26.40;1.00;;;;;;8341034;28;20233;-66
2022/07/14 14:41:17;;;;;;;2.25;1.80;;;26.70;1.00;;;;;;8316506;28;20191;-64
2022/07/14 14:45:18;;;;;;;2.22;2.03;;;26.60;1.00;;;;;;8310441;28;20191;-67
2022/07/14 14:49:19;;;;;;;2.92;1.98;;;26.40;1.00;;;;;;8310106;28;20198;-65
2022/07/14 14:53:19;;;;;;;3.65;2.13;;;26.30;1.00;;;;;;8313852;28;20217;-65
2022/07/14 14:57:21;;;;;;;2.43;2.20;;;26.10;1.00;;;;;;8337179;28;20235;-66
2022/07/14 15:01:21;;;;;;;2.27;2.07;;;25.30;1.00;;;;;;8315062;28;20244;-62
2022/07/14 15:05:23;;;;;;;2.57;2.37;;;25.00;1.00;;;;;;8307468;28;20205;-65
2022/07/14 15:09:24;;;;;;;4.07;2.37;;;24.80;1.00;;;;;;8306652;28;20197;-64
2022/07/14 15:13:25;;;;;;;3.03;2.00;;;24.80;1.00;;;;;;8308098;28;20219;-64
2022/07/14 15:17:26;;;;;;;2.07;1.83;;;24.70;1.00;;;;;;8308257;28;20214;-65
2022/07/14 15:21:27;;;;;;;2.57;1.80;;;24.70;1.00;;;;;;8343772;28;20233;-65
2022/07/14 15:25:28;;;;;;;2.23;2.00;;;24.70;1.00;;;;;;8308854;28;20198;-63
2022/07/14 15:29:29;;;;;;;4.00;1.97;;;24.70;1.00;;;;;;8321867;28;20186;-65
2022/07/14 15:33:30;;;;;;;2.37;2.17;;;24.60;1.00;;;;;;8307731;28;20245;-66
2022/07/14 15:37:31;;;;;;;3.60;2.00;;;24.30;1.00;;;;;;8310570;28;20210;-63
2022/07/14 15:41:32;;;;;;;2.60;2.10;;;24.30;1.00;;;;;;8324097;28;20199;-64
2022/07/14 15:45:33;;;;;;;3.20;2.13;;;24.10;1.00;;;;;;8342664;28;20191;-65
2022/07/14 15:49:34;;;;;;;4.20;1.77;;;24.00;1.00;;;;;;8320756;28;20209;-66
2022/07/14 15:53:34;;;;;;;4.50;2.20;;;23.90;1.00;;;;;;8341225;28;20238;-64
2022/07/14 15:57:36;;;;;;;3.63;2.17;;;23.90;1.00;;;;;;8309332;28;20272;-65
2022/07/14 16:01:37;;;;;;;4.00;2.00;;;23.90;1.00;;;;;;8306224;28;20373;-64
2022/07/14 16:05:38;;;;;;;4.30;2.17;;;23.80;1.00;;;;;;8340551;28;20414;-64
2022/07/14 16:09:39;;;;;;;4.30;2.10;;;23.90;1.00;;;;;;8311860;28;20188;-63
2022/07/14 16:13:40;;;;;;;3.37;2.00;;;23.90;1.00;;;;;;8340171;28;20190;-63
2022/07/14 16:17:41;;;;;;;2.57;1.90;;;23.90;1.00;;;;;;8312970;28;20461;-66
2022/07/14 16:21:42;;;;;;;3.87;2.30;;;23.80;1.00;;;;;;8335340;28;20195;-67
2022/07/14 16:25:43;;;;;;;4.23;2.63;;;23.60;1.00;;;;;;8310976;28;20236;-64
2022/07/14 16:29:44;;;;;;;5.00;2.23;;;23.50;1.00;;;;;;8305343;28;20188;-63
2022/07/14 16:33:45;;;;;;;3.20;2.17;;;23.30;1.00;;;;;;8340509;28;20190;-63
2022/07/14 16:37:46;;;;;;;4.40;2.47;;;23.20;23.10;;;;;;8307654;28;20219;-64
2022/07/14 16:41:47;;;;;;;2.33;2.13;;;23.00;86.30;;;;;;8306259;28;20191;-67
2022/07/14 16:45:49;;;;;;;3.37;1.97;;;22.70;99.90;;;;;;8300517;28;20305;-65
2022/07/14 16:49:51;;;;;;;4.97;2.80;;;22.50;99.90;;;;;;8334947;28;20193;-63
2022/07/14 16:53:55;;;;;;;2.87;2.67;;;22.20;99.90;;;;;;8305003;28;20230;-66
2022/07/14 16:57:56;;;;;;;3.17;2.80;;;22.00;99.90;;;;;;8301973;28;20206;-65
2022/07/14 17:01:56;;;;;;;5.07;2.90;;;21.80;1.00;;;;;;8311368;28;20183;-64
2022/07/14 17:10:17;;;;;;;3.40;3.10;;;21.20;16.10;;;;;;8303723;28;20197;-65
2022/07/14 17:14:18;;;;;;;4.00;3.07;;;20.90;99.90;;;;;;8304589;28;20785;-64
2022/07/14 17:18:19;;;;;;;4.80;2.83;;;20.70;99.90;;;;;;8303109;28;20266;-67
2022/07/14 17:22:20;;;;;;;5.47;3.33;;;20.60;99.90;;;;;;8333356;28;20194;-65
2022/07/14 17:26:21;;;;;;;4.80;3.03;;;20.70;90.60;;;;;;8300672;28;20265;-67
2022/07/14 17:30:22;;;;;;;4.67;3.00;;;20.70;7.00;;;;;;8332291;28;20189;-64
2022/07/14 17:34:23;;;;;;;5.83;3.17;;;20.70;1.00;;;;;;8334404;28;20252;-63
2022/07/14 17:38:25;;;;;;;5.43;2.83;;;20.70;1.00;;;;;;8313802;28;20206;-65
2022/07/14 17:42:26;;;;;;;3.87;2.87;;;20.80;1.00;;;;;;8302094;28;20183;-64
2022/07/14 17:46:27;;;;;;;4.20;3.20;;;20.70;1.00;;;;;;8314427;28;20278;-65
2022/07/14 17:50:28;;;;;;;5.00;3.37;;;20.70;1.00;;;;;;8310717;28;20281;-64
2022/07/14 17:54:29;;;;;;;4.43;3.17;;;20.60;1.00;;;;;;8306630;28;20191;-63
2022/07/14 17:58:30;;;;;;;7.27;3.47;;;20.60;1.00;;;;;;8333595;28;20221;-64
2022/07/14 18:02:31;;;;;;;5.23;3.33;;;20.50;1.00;;;;;;8339863;28;20182;-62
2022/07/14 18:06:32;;;;;;;5.70;3.40;;;20.40;1.00;;;;;;8303919;28;20210;-64
2022/07/14 18:10:33;;;;;;;4.70;3.07;;;20.40;1.00;;;;;;8332106;28;20275;-63
2022/07/14 18:14:34;;;;;;;5.20;3.70;;;20.40;1.00;;;;;;8307465;28;20241;-63
2022/07/14 18:18:35;;;;;;;5.73;3.60;;;20.10;17.90;;;;;;8315892;28;20218;-61
2022/07/14 18:22:40;;;;;;;4.07;3.60;;;20.00;83.00;;;;;;8314547;28;20183;-62
2022/07/14 18:26:42;;;;;;;5.07;3.27;;;19.80;99.90;;;;;;8312452;28;20183;-61
2022/07/14 18:30:43;;;;;;;3.60;3.20;;;19.70;99.90;;;;;;8318272;28;20191;-61
2022/07/14 18:34:44;;;;;;;4.30;3.50;;;19.70;99.90;;;;;;8306408;28;20189;-63
2022/07/14 18:38:45;;;;;;;7.37;3.53;;;19.70;99.90;;;;;;8309344;28;20218;-61
2022/07/14 18:42:46;;;;;;;4.73;3.80;;;19.60;99.90;;;;;;8311967;28;20190;-63
2022/07/14 18:46:47;;;;;;;5.63;3.77;;;19.50;99.90;;;;;;8312255;28;20182;-65
2022/07/14 18:50:48;;;;;;;4.63;4.10;;;19.40;99.90;;;;;;8341418;28;20214;-63
2022/07/14 18:54:49;;;;;;;7.10;3.80;;;19.20;99.90;;;;;;8312688;28;20263;-62
2022/07/14 18:58:50;;;;;;;4.17;3.77;;;19.00;99.90;;;;;;8310543;28;20461;-62
2022/07/14 19:02:51;;;;;;;6.37;3.90;;;18.90;99.90;;;;;;8340534;28;20203;-64
2022/07/14 19:06:52;;;;;;;5.93;3.77;;;18.90;99.90;;;;;;8301180;28;20197;-63
2022/07/14 19:10:53;;;;;;;3.87;3.47;;;18.80;99.90;;;;;;8312794;28;20606;-63
2022/07/14 19:14:55;;;;;;;6.90;3.37;;;18.80;99.90;;;;;;8310862;28;20194;-62
2022/07/14 19:18:56;;;;;;;5.80;4.07;;;18.70;99.90;;;;;;8311046;28;20496;-62
2022/07/14 19:22:57;;;;;;;6.73;3.80;;;18.60;99.90;;;;;;8335204;28;20202;-63
2022/07/14 19:26:57;;;;;;;6.03;3.67;;;18.60;99.90;;;;;;8342047;28;20183;-63
2022/07/14 19:30:58;;;;;;;4.47;3.50;;;18.60;99.90;;;;;;8311847;28;20182;-64
2022/07/14 19:35:02;;;;;;;7.10;3.73;;;18.60;99.90;;;;;;8303899;28;20187;-64
2022/07/14 19:39:03;;;;;;;4.47;3.90;;;18.60;99.90;;;;;;8313004;28;20186;-61
2022/07/14 19:43:04;;;;;;;5.10;3.93;;;18.60;99.90;;;;;;8309923;28;20178;-62
2022/07/14 19:47:05;;;;;;;5.83;4.13;;;18.60;99.90;;;;;;8309957;28;20207;-71
2022/07/14 19:51:06;;;;;;;6.07;4.03;;;18.50;99.90;;;;;;8309167;28;20215;-63
2022/07/14 19:55:08;;;;;;;5.50;3.83;;;18.50;99.90;;;;;;8311187;28;20187;-63
2022/07/14 19:59:10;;;;;;;6.17;4.30;;;18.50;1.00;;;;;;8309258;28;20748;-61
2022/07/14 20:03:11;;;;;;;6.93;4.43;;;18.40;1.00;;;;;;8310181;28;20189;-63
2022/07/14 20:07:12;;;;;;;5.17;4.00;;;18.40;1.00;;;;;;8340920;28;20198;-62
2022/07/14 20:11:13;;;;;;;7.07;4.40;;;18.30;1.00;;;;;;8315495;28;20191;-60
2022/07/14 20:15:14;;;;;;;5.90;3.90;;;18.20;1.00;;;;;;8314527;28;20187;-61
2022/07/14 20:19:15;;;;;;;4.80;4.23;;;18.10;1.00;;;;;;8309931;28;20444;-62
2022/07/14 20:23:16;;;;;;;3.90;3.50;;;18.10;1.00;;;;;;8308862;28;20274;-61
2022/07/14 20:35:58;;;;;;;5.60;3.90;;;17.70;1.00;;;;;;8305586;28;20221;-61
2022/07/14 20:39:59;;;;;;;7.63;4.33;;;17.50;28.00;;;;;;8318533;28;20191;-62
2022/07/14 20:44:04;;;;;;;5.03;4.07;;;17.40;99.90;;;;;;8301113;28;20182;-62
2022/07/14 20:48:05;;;;;;;7.17;4.33;;;17.20;99.90;;;;;;8343066;28;20201;-61
2022/07/14 20:52:06;;;;;;;7.93;4.07;;;17.10;99.90;;;;;;8314035;28;20303;-60
2022/07/14 20:56:07;;;;;;;7.77;4.23;;;16.90;1.00;;;;;;8303807;28;20218;-64
2022/07/14 21:00:09;;;;;;;4.73;4.13;;;16.90;99.90;;;;;;8305479;28;20190;-65
2022/07/14 21:04:10;;;;;;;6.07;4.73;;;16.80;1.00;;;;;;8313941;28;20282;-60
2022/07/14 21:08:11;;;;;;;6.57;3.50;;;16.70;99.90;;;;;;8307340;28;20202;-62
2022/07/14 21:12:14;;;;;;;4.37;3.00;;;16.60;1.00;;;;;;8320794;28;20581;-60
2022/07/14 21:16:15;;;;;;;5.60;2.97;;;16.60;99.90;;;;;;8308520;28;20259;-62
2022/07/14 21:20:16;;;;;;;2.83;2.40;;;16.60;99.90;;;;;;8310362;28;20236;-61
2022/07/14 21:24:16;;;;;;;5.17;2.80;;;16.60;96.60;;;;;;8340390;28;20211;-62
2022/07/14 21:28:17;;;;;;;4.60;2.10;;;16.60;1.00;;;;;;8304194;28;20240;-60
2022/07/14 21:32:18;;;;;;;4.70;2.50;;;16.50;1.00;;;;;;8304460;28;20257;-60
2022/07/14 21:36:19;;;;;;;4.90;1.97;;;16.60;99.90;;;;;;8300944;28;20540;-59